Terminal Aerodrome Forecast
Issued by NWS

Home | Current Version | Previous Version | Text Only | Print | Product List | Glossary On
Versions: 1 2 3 4 5 6 7 8 9 10 11 12 13 14 15 16 17 18 19 20 21 22 23 24
000
FTUS41 KBGM 290200 AAB
TAFITH
TAF AMD
KITH 290234Z 2903/2924 32005KT P6SM -SHRA SCT007 OVC035
      TEMPO 2903/2906 BKN007
     FM290600 31004KT P6SM SCT250
      TEMPO 2906/2908 2SM BR OVC004
     FM290800 29003KT 2SM BR OVC003
      TEMPO 2912/2914 4SM BR SCT003 BKN250
     FM291400 30006KT P6SM BKN035=

USA.gov is the U.S. government's official web portal to all federal, state and local government web resources and services.